Time;durP1;ratioP1;P1;durP2;ratioP2;P2;SDS_P1;SDS_P2;PMS_P1;PMS_P2;Temp;Humidity;BMP_temperature;BMP_pressure;BME280_temperature;BME280_humidity;BME280_pressure;Samples;Min_cycle;Max_cycle;Signal;HPM_P1;HPM_P2
2021/12/09 00:00:20;;;;;;;17.23;7.68;;;8.30;68.10;;;;;;6237851;28;20072;-66
2021/12/09 00:03:22;;;;;;;15.73;7.55;;;8.30;68.00;;;;;;6247678;28;20026;-67
2021/12/09 00:06:27;;;;;;;17.77;8.18;;;8.30;68.00;;;;;;6240738;28;20486;-67
2021/12/09 00:09:29;;;;;;;17.40;7.50;;;8.30;68.00;;;;;;6241795;28;20036;-67
2021/12/09 00:12:30;;;;;;;13.95;7.05;;;8.20;67.90;;;;;;6241809;28;20399;-67
2021/12/09 00:15:32;;;;;;;12.73;6.97;;;8.20;67.90;;;;;;6217283;28;20066;-67
2021/12/09 00:18:33;;;;;;;19.15;8.63;;;8.20;67.80;;;;;;6240471;28;20036;-67
2021/12/09 00:21:35;;;;;;;19.40;8.20;;;8.20;67.80;;;;;;6241133;28;20025;-67
2021/12/09 00:24:36;;;;;;;19.60;7.75;;;8.20;67.90;;;;;;6236853;28;20119;-66
2021/12/09 00:27:37;;;;;;;14.48;7.45;;;8.20;67.90;;;;;;6215053;28;20037;-67
2021/12/09 00:30:38;;;;;;;19.73;8.48;;;8.20;67.90;;;;;;6241327;28;20028;-67
2021/12/09 00:33:43;;;;;;;16.42;7.72;;;8.20;68.00;;;;;;6239074;28;20104;-66
2021/12/09 00:36:57;;;;;;;22.25;9.95;;;8.20;68.10;;;;;;6213744;28;20053;-67
2021/12/09 00:39:58;;;;;;;21.52;9.07;;;8.10;67.80;;;;;;6233844;28;20053;-66
2021/12/09 00:43:00;;;;;;;20.92;9.13;;;8.10;67.80;;;;;;6215248;28;20030;-67
2021/12/09 00:46:02;;;;;;;19.20;8.52;;;8.00;67.90;;;;;;6229337;28;20030;-67
2021/12/09 00:49:03;;;;;;;15.13;8.35;;;8.00;68.00;;;;;;6240455;28;20061;-67
2021/12/09 00:52:05;;;;;;;16.20;7.65;;;8.00;68.10;;;;;;6234598;28;20034;-67
2021/12/09 00:55:09;;;;;;;20.42;7.32;;;8.00;68.10;;;;;;6236419;28;20037;-67
2021/12/09 00:58:10;;;;;;;12.70;6.13;;;8.00;68.00;;;;;;6239077;28;20112;-68
2021/12/09 01:01:11;;;;;;;15.07;6.68;;;8.00;67.80;;;;;;6241761;28;20034;-67
2021/12/09 01:04:12;;;;;;;18.35;8.13;;;8.00;67.80;;;;;;6238386;28;20037;-68
2021/12/09 01:07:14;;;;;;;12.23;5.85;;;8.00;67.50;;;;;;6240396;28;20029;-67
2021/12/09 01:10:16;;;;;;;10.68;6.13;;;8.00;67.50;;;;;;6241521;28;20585;-67
2021/12/09 01:13:17;;;;;;;13.75;6.65;;;8.00;67.30;;;;;;6239235;28;20048;-67
2021/12/09 01:16:18;;;;;;;17.23;6.80;;;8.00;67.20;;;;;;6240548;28;20133;-67
2021/12/09 01:19:19;;;;;;;14.38;6.22;;;7.90;67.20;;;;;;6240348;28;20064;-67
2021/12/09 01:22:27;;;;;;;14.57;7.10;;;7.90;67.20;;;;;;6215379;28;20049;-67
2021/12/09 01:25:36;;;;;;;16.20;6.57;;;7.80;67.20;;;;;;6231731;28;20459;-67
2021/12/09 01:28:49;;;;;;;12.27;6.07;;;7.80;67.40;;;;;;6236338;28;20117;-67
2021/12/09 01:31:59;;;;;;;13.05;5.20;;;7.80;67.40;;;;;;6235741;28;20065;-67
2021/12/09 01:35:01;;;;;;;10.52;4.95;;;7.80;67.50;;;;;;6236534;28;20048;-67
2021/12/09 01:38:10;;;;;;;8.85;4.75;;;7.70;67.40;;;;;;6238749;28;20623;-67
2021/12/09 01:41:11;;;;;;;14.90;4.85;;;7.70;67.40;;;;;;6239896;28;20090;-67
2021/12/09 01:44:13;;;;;;;11.98;5.82;;;7.70;67.50;;;;;;6235168;28;20026;-67
2021/12/09 01:47:14;;;;;;;13.35;5.47;;;7.60;67.50;;;;;;6238473;28;20487;-68
2021/12/09 01:50:16;;;;;;;12.70;5.35;;;7.60;67.80;;;;;;6241661;28;20104;-67
2021/12/09 01:53:18;;;;;;;15.05;4.47;;;7.60;67.90;;;;;;6241521;28;20040;-66
2021/12/09 01:56:23;;;;;;;14.85;4.90;;;7.60;67.80;;;;;;6244828;28;20485;-66
2021/12/09 01:59:25;;;;;;;7.70;3.85;;;7.60;67.80;;;;;;6240536;28;20124;-66
2021/12/09 02:02:26;;;;;;;13.75;5.88;;;7.70;67.80;;;;;;6231744;28;20065;-66
2021/12/09 02:05:28;;;;;;;15.02;5.88;;;7.70;67.70;;;;;;6241859;28;20377;-67
2021/12/09 02:08:29;;;;;;;10.10;4.88;;;7.60;67.70;;;;;;6245058;28;20034;-66
2021/12/09 02:11:30;;;;;;;11.85;5.13;;;7.60;67.80;;;;;;6243509;28;20358;-66
2021/12/09 02:14:31;;;;;;;6.82;4.22;;;7.70;67.90;;;;;;6244357;28;20069;-67
2021/12/09 02:17:33;;;;;;;8.23;4.00;;;7.60;67.90;;;;;;6213421;28;20029;-66
2021/12/09 02:20:36;;;;;;;8.02;4.35;;;7.70;68.70;;;;;;6242536;28;20029;-66
2021/12/09 02:23:47;;;;;;;9.68;4.57;;;7.60;67.70;;;;;;6242748;28;20067;-66
2021/12/09 02:26:49;;;;;;;6.78;4.10;;;7.60;67.80;;;;;;6243804;28;20048;-67
2021/12/09 02:29:53;;;;;;;9.07;4.22;;;7.60;67.80;;;;;;6242260;28;20340;-67
2021/12/09 02:32:54;;;;;;;8.15;4.82;;;7.50;67.70;;;;;;6242382;28;20447;-67
2021/12/09 02:35:55;;;;;;;5.85;2.95;;;7.50;67.70;;;;;;6241517;28;20038;-67
2021/12/09 02:38:56;;;;;;;23.48;4.95;;;7.50;67.90;;;;;;6242763;28;20481;-66
2021/12/09 02:41:58;;;;;;;11.02;4.32;;;7.60;68.10;;;;;;6235923;28;20479;-66
2021/12/09 02:44:59;;;;;;;10.00;4.63;;;7.60;68.10;;;;;;6239902;28;20096;-66
2021/12/09 02:48:00;;;;;;;9.43;4.82;;;7.60;68.00;;;;;;6243775;28;20540;-66
2021/12/09 02:51:04;;;;;;;15.68;5.72;;;7.60;68.10;;;;;;6223660;28;20034;-66
2021/12/09 02:54:07;;;;;;;8.68;4.43;;;7.60;68.10;;;;;;6242275;28;20113;-66
2021/12/09 02:57:08;;;;;;;8.10;3.83;;;7.60;68.20;;;;;;6241753;28;20025;-66
2021/12/09 03:00:11;;;;;;;8.77;3.83;;;7.60;68.10;;;;;;6212118;28;20034;-66
2021/12/09 03:03:12;;;;;;;5.35;2.60;;;7.70;68.20;;;;;;6215458;28;20041;-66
2021/12/09 03:06:13;;;;;;;4.28;2.72;;;7.70;68.20;;;;;;6242317;28;20360;-66
2021/12/09 03:09:17;;;;;;;8.15;3.78;;;7.70;68.20;;;;;;6242373;28;20048;-66
2021/12/09 03:12:24;;;;;;;4.18;2.25;;;7.80;68.20;;;;;;6239328;28;20439;-66
2021/12/09 03:15:26;;;;;;;4.95;2.20;;;7.90;68.20;;;;;;6241486;28;20455;-66
2021/12/09 03:18:27;;;;;;;5.25;2.72;;;7.90;68.10;;;;;;6241145;28;20037;-67
2021/12/09 03:21:36;;;;;;;5.35;2.33;;;7.90;67.80;;;;;;6232918;28;20042;-66
2021/12/09 03:24:37;;;;;;;7.03;3.20;;;8.00;67.80;;;;;;6215659;28;20478;-67
2021/12/09 03:27:38;;;;;;;5.22;2.30;;;8.00;68.60;;;;;;6219965;28;20038;-67
2021/12/09 03:30:39;;;;;;;3.50;1.77;;;8.00;67.80;;;;;;6215235;28;20497;-67
2021/12/09 03:33:40;;;;;;;1.73;1.33;;;7.90;67.70;;;;;;6218085;28;20034;-67
2021/12/09 03:36:43;;;;;;;3.40;1.33;;;8.00;67.80;;;;;;6214302;28;20100;-67
2021/12/09 03:39:45;;;;;;;3.42;1.63;;;8.00;67.90;;;;;;6214804;28;20037;-67
2021/12/09 03:42:46;;;;;;;2.67;1.30;;;7.90;67.90;;;;;;6217149;28;20034;-67
2021/12/09 03:45:50;;;;;;;1.77;1.02;;;7.90;68.10;;;;;;6218442;28;20467;-66
2021/12/09 03:48:51;;;;;;;3.60;1.77;;;7.90;68.30;;;;;;6217336;28;20362;-67
2021/12/09 03:51:54;;;;;;;1.98;1.15;;;7.90;68.30;;;;;;6215174;28;20354;-67
2021/12/09 03:54:55;;;;;;;1.38;0.90;;;7.90;68.30;;;;;;6215577;28;20415;-66
2021/12/09 03:57:56;;;;;;;1.52;1.10;;;7.90;68.30;;;;;;6213147;28;20132;-67
2021/12/09 04:00:58;;;;;;;1.52;0.90;;;7.90;68.40;;;;;;6217270;28;20496;-67
2021/12/09 04:03:59;;;;;;;2.03;1.20;;;7.90;68.60;;;;;;6220672;28;20117;-67
2021/12/09 04:07:01;;;;;;;1.73;1.25;;;7.90;69.50;;;;;;6217212;28;20046;-67
2021/12/09 04:10:05;;;;;;;3.30;1.65;;;7.90;68.60;;;;;;6217710;28;20034;-68
2021/12/09 04:13:07;;;;;;;2.30;1.60;;;7.90;68.70;;;;;;6228241;28;20033;-68
2021/12/09 04:16:08;;;;;;;4.65;1.42;;;7.90;68.80;;;;;;6242910;28;20034;-67
2021/12/09 04:19:10;;;;;;;2.15;1.35;;;7.90;68.90;;;;;;6244998;28;20420;-67
2021/12/09 04:22:11;;;;;;;2.35;1.52;;;7.80;68.80;;;;;;6243089;28;20034;-67
2021/12/09 04:25:12;;;;;;;3.05;1.67;;;7.80;68.80;;;;;;6238442;28;20049;-68
2021/12/09 04:28:13;;;;;;;2.50;1.05;;;7.80;69.00;;;;;;6236335;28;20063;-67
2021/12/09 04:31:14;;;;;;;1.58;1.40;;;7.80;69.00;;;;;;6215094;28;20030;-67
2021/12/09 04:34:16;;;;;;;3.42;1.42;;;7.80;69.20;;;;;;6232727;28;20038;-67
2021/12/09 04:37:18;;;;;;;2.92;1.58;;;7.80;69.20;;;;;;6237447;28;20469;-67
2021/12/09 04:40:19;;;;;;;2.25;1.33;;;7.70;69.20;;;;;;6225422;28;20442;-68
2021/12/09 04:43:20;;;;;;;1.50;1.02;;;7.80;69.50;;;;;;6237250;28;20049;-67
2021/12/09 04:46:21;;;;;;;1.88;1.30;;;7.80;69.30;;;;;;6241181;28;20128;-67
2021/12/09 04:49:22;;;;;;;2.75;1.27;;;7.80;69.30;;;;;;6214919;28;20472;-67
2021/12/09 04:52:24;;;;;;;3.47;1.38;;;7.80;69.30;;;;;;6231620;28;20037;-67
2021/12/09 04:55:25;;;;;;;4.95;1.90;;;7.80;69.20;;;;;;6241164;28;20041;-68
2021/12/09 04:58:27;;;;;;;3.75;1.58;;;7.80;69.20;;;;;;6237032;28;20030;-67
2021/12/09 05:01:28;;;;;;;3.08;1.20;;;7.80;69.20;;;;;;6239291;28;20034;-67
2021/12/09 05:04:29;;;;;;;5.28;2.25;;;7.80;69.20;;;;;;6214523;28;20034;-67
2021/12/09 05:07:31;;;;;;;1.70;1.20;;;7.80;69.10;;;;;;6230267;28;20432;-67
2021/12/09 05:10:51;;;;;;;2.65;1.52;;;7.80;69.20;;;;;;6240771;28;20033;-67
2021/12/09 05:13:52;;;;;;;1.55;0.85;;;7.80;69.10;;;;;;6236778;28;20064;-69
2021/12/09 05:16:55;;;;;;;1.05;0.60;;;7.70;68.90;;;;;;6219140;28;20048;-67
2021/12/09 05:19:56;;;;;;;0.93;0.60;;;7.70;68.90;;;;;;6237075;28;20415;-66
2021/12/09 05:22:57;;;;;;;0.80;0.50;;;7.70;68.90;;;;;;6236733;28;20053;-66
2021/12/09 05:26:01;;;;;;;2.08;0.75;;;7.70;68.90;;;;;;6241504;28;20034;-67
2021/12/09 05:29:02;;;;;;;0.30;0.30;;;7.70;68.80;;;;;;6241011;28;20377;-67
2021/12/09 05:32:12;;;;;;;0.43;0.40;;;7.70;68.60;;;;;;6224313;28;20064;-67
2021/12/09 05:35:14;;;;;;;0.95;0.45;;;7.60;68.40;;;;;;6235220;28;20355;-67
2021/12/09 05:38:15;;;;;;;3.28;0.65;;;7.60;68.40;;;;;;6241353;28;20030;-68
2021/12/09 05:41:16;;;;;;;0.75;0.30;;;7.50;68.50;;;;;;6244346;28;20041;-67
2021/12/09 05:44:17;;;;;;;1.50;0.43;;;7.60;68.60;;;;;;6240603;28;20037;-68
2021/12/09 05:47:19;;;;;;;0.40;0.35;;;7.50;68.50;;;;;;6240583;28;20115;-68
2021/12/09 05:50:20;;;;;;;0.57;0.52;;;7.50;68.50;;;;;;6242404;28;20041;-67
2021/12/09 05:53:21;;;;;;;2.05;0.68;;;7.40;68.50;;;;;;6243800;28;20358;-67
2021/12/09 05:56:23;;;;;;;1.80;1.40;;;7.40;68.50;;;;;;6242780;28;20037;-68
2021/12/09 05:59:25;;;;;;;1.90;1.17;;;7.40;68.50;;;;;;6242116;28;20041;-69
2021/12/09 06:02:27;;;;;;;1.70;0.80;;;7.40;68.50;;;;;;6227417;28;20050;-67
2021/12/09 06:05:28;;;;;;;2.03;0.80;;;7.40;68.30;;;;;;6240674;28;20413;-69
2021/12/09 06:08:29;;;;;;;1.83;1.17;;;7.30;68.40;;;;;;6241546;28;20122;-68
2021/12/09 06:11:34;;;;;;;2.15;1.33;;;7.30;68.50;;;;;;6242350;28;20477;-68
2021/12/09 06:14:37;;;;;;;3.25;1.30;;;7.30;68.70;;;;;;6239212;28;20044;-68
2021/12/09 06:17:38;;;;;;;1.55;1.10;;;7.20;68.50;;;;;;6243540;28;20038;-68
2021/12/09 06:20:39;;;;;;;1.88;1.23;;;7.20;68.50;;;;;;6243587;28;20044;-69
2021/12/09 06:23:40;;;;;;;1.77;1.38;;;7.20;68.60;;;;;;6240782;28;20061;-68
2021/12/09 06:26:42;;;;;;;2.33;1.08;;;7.20;68.70;;;;;;6240699;28;20048;-68
2021/12/09 06:29:43;;;;;;;2.83;1.67;;;7.20;68.80;;;;;;6242667;28;20044;-68
2021/12/09 06:32:44;;;;;;;2.28;1.67;;;7.20;68.80;;;;;;6242272;28;20091;-69
2021/12/09 06:35:45;;;;;;;1.17;0.90;;;7.30;68.80;;;;;;6235864;28;20116;-69
2021/12/09 06:38:47;;;;;;;2.60;1.60;;;7.30;68.80;;;;;;6241482;28;20041;-69
2021/12/09 06:41:48;;;;;;;2.38;1.67;;;7.40;68.60;;;;;;6216536;28;20041;-70
2021/12/09 06:44:49;;;;;;;4.53;1.70;;;7.30;68.40;;;;;;6242173;28;20044;-70
2021/12/09 06:47:50;;;;;;;3.28;1.95;;;7.40;68.50;;;;;;6223498;28;20033;-69
2021/12/09 06:50:52;;;;;;;4.93;2.08;;;7.40;68.40;;;;;;6239464;28;20044;-69
2021/12/09 06:53:53;;;;;;;2.28;1.60;;;7.30;68.40;;;;;;6237912;28;20532;-69
2021/12/09 06:56:55;;;;;;;1.95;1.50;;;7.30;68.50;;;;;;6240851;28;20050;-69
2021/12/09 06:59:56;;;;;;;4.22;2.13;;;7.40;68.50;;;;;;6243082;28;20068;-69
2021/12/09 07:02:57;;;;;;;2.85;2.00;;;7.40;68.60;;;;;;6240202;28;20354;-68
2021/12/09 07:06:01;;;;;;;3.47;2.35;;;7.40;68.60;;;;;;6241065;28;20771;-68
2021/12/09 07:09:04;;;;;;;6.47;1.92;;;7.40;68.60;;;;;;6240915;28;20098;-69
2021/12/09 07:12:05;;;;;;;4.10;2.28;;;7.50;68.60;;;;;;6240202;28;20067;-68
2021/12/09 07:15:09;;;;;;;3.53;2.13;;;7.50;68.50;;;;;;6215034;28;20123;-69
2021/12/09 07:18:10;;;;;;;3.60;2.28;;;7.60;68.40;;;;;;6251258;28;20319;-69
2021/12/09 07:21:11;;;;;;;1.75;1.48;;;7.60;68.40;;;;;;6239702;28;20519;-69
2021/12/09 07:24:12;;;;;;;2.30;1.55;;;7.70;68.40;;;;;;6240181;28;20029;-69
2021/12/09 07:27:13;;;;;;;1.40;1.02;;;7.70;68.40;;;;;;6215529;28;20065;-68
2021/12/09 07:30:17;;;;;;;1.50;1.10;;;7.80;68.10;;;;;;6226624;28;20475;-69
2021/12/09 07:33:18;;;;;;;1.27;0.63;;;7.90;67.80;;;;;;6228935;28;20037;-70
2021/12/09 07:36:20;;;;;;;1.65;0.82;;;7.90;67.70;;;;;;6236719;28;20076;-68
2021/12/09 07:39:21;;;;;;;1.45;1.00;;;7.90;67.60;;;;;;6237967;28;20438;-68
2021/12/09 07:42:23;;;;;;;7.85;2.20;;;8.00;67.50;;;;;;6240232;28;20034;-68
2021/12/09 07:45:25;;;;;;;2.40;1.50;;;8.00;67.30;;;;;;6241050;28;20371;-68
2021/12/09 07:48:26;;;;;;;2.40;1.52;;;8.10;67.30;;;;;;6237072;28;21209;-67
2021/12/09 07:51:27;;;;;;;5.38;2.03;;;8.10;67.20;;;;;;6235543;28;20390;-67
2021/12/09 07:54:28;;;;;;;3.20;1.75;;;8.10;67.20;;;;;;6214700;28;20026;-68
2021/12/09 07:57:31;;;;;;;2.05;1.42;;;8.10;67.20;;;;;;6232978;28;20025;-69
2021/12/09 08:00:33;;;;;;;3.80;1.70;;;8.20;67.30;;;;;;6232095;28;20032;-69
2021/12/09 08:03:35;;;;;;;1.55;1.30;;;8.20;67.30;;;;;;6238079;28;20034;-69
2021/12/09 08:06:37;;;;;;;3.20;1.52;;;8.20;67.30;;;;;;6211690;28;20482;-69
2021/12/09 08:09:38;;;;;;;2.35;1.45;;;8.20;67.20;;;;;;6242687;28;20026;-68
2021/12/09 08:12:40;;;;;;;3.33;1.48;;;8.30;67.10;;;;;;6237002;28;20381;-69
2021/12/09 08:15:47;;;;;;;1.15;0.98;;;8.30;67.10;;;;;;6240453;28;20126;-68
2021/12/09 08:18:54;;;;;;;2.95;1.40;;;8.30;67.00;;;;;;6240963;28;20053;-69
2021/12/09 08:21:55;;;;;;;3.72;1.60;;;8.40;66.90;;;;;;6237788;28;20057;-69
2021/12/09 08:24:56;;;;;;;1.83;1.10;;;8.40;66.60;;;;;;6239377;28;20501;-69
2021/12/09 08:27:57;;;;;;;2.75;1.60;;;8.50;66.60;;;;;;6237074;28;20033;-68
2021/12/09 08:30:59;;;;;;;4.53;1.73;;;8.70;66.40;;;;;;6234423;28;20033;-68
2021/12/09 08:34:02;;;;;;;5.28;2.30;;;8.70;66.30;;;;;;6219965;28;20048;-69
2021/12/09 08:37:03;;;;;;;6.80;2.60;;;8.80;65.90;;;;;;6237314;28;20560;-68
2021/12/09 08:40:06;;;;;;;2.58;1.60;;;8.90;65.90;;;;;;6215634;28;20034;-70
2021/12/09 08:43:07;;;;;;;8.30;2.63;;;8.90;65.80;;;;;;6231464;28;20037;-68
2021/12/09 08:46:08;;;;;;;3.33;2.13;;;8.90;65.90;;;;;;6239457;28;20074;-68
2021/12/09 08:49:10;;;;;;;4.55;2.38;;;8.90;66.00;;;;;;6240055;28;20152;-69
2021/12/09 08:52:12;;;;;;;4.22;2.40;;;8.90;66.10;;;;;;6232931;28;20497;-69
2021/12/09 08:55:13;;;;;;;11.57;3.95;;;8.90;66.00;;;;;;6253165;28;20522;-68
2021/12/09 08:58:15;;;;;;;4.72;2.53;;;8.90;65.90;;;;;;6234672;28;20049;-68
2021/12/09 09:01:16;;;;;;;5.45;2.83;;;9.00;66.10;;;;;;6223633;28;20042;-68
2021/12/09 09:04:18;;;;;;;4.32;2.60;;;9.10;65.90;;;;;;6237298;28;20445;-68
2021/12/09 09:07:19;;;;;;;8.27;3.47;;;9.10;65.70;;;;;;6236543;28;20045;-70
2021/12/09 09:10:27;;;;;;;4.85;2.45;;;9.20;65.40;;;;;;6191893;28;20038;-69
2021/12/09 09:13:28;;;;;;;6.85;3.38;;;9.20;65.30;;;;;;6210015;28;20092;-69
2021/12/09 09:16:29;;;;;;;4.10;2.45;;;9.20;65.20;;;;;;6215915;28;20045;-69
2021/12/09 09:19:31;;;;;;;3.40;1.83;;;9.20;65.10;;;;;;6243783;28;20113;-68
2021/12/09 09:22:32;;;;;;;2.65;1.75;;;9.20;65.10;;;;;;6239755;28;20030;-69
2021/12/09 09:25:33;;;;;;;7.05;2.00;;;9.30;64.90;;;;;;6237229;28;20035;-69
2021/12/09 09:28:35;;;;;;;2.55;1.38;;;9.20;64.50;;;;;;6239629;28;20045;-68
2021/12/09 09:31:39;;;;;;;4.80;1.88;;;9.20;65.40;;;;;;6236702;28;20517;-68
2021/12/09 09:34:41;;;;;;;4.63;1.20;;;9.20;64.50;;;;;;6233772;28;20041;-69
2021/12/09 09:37:42;;;;;;;5.07;2.22;;;9.20;64.50;;;;;;6237563;28;20037;-69
2021/12/09 09:40:50;;;;;;;4.05;1.48;;;9.10;64.30;;;;;;6238983;28;20124;-68
2021/12/09 09:43:58;;;;;;;4.15;1.80;;;9.10;65.00;;;;;;6238373;28;20044;-68
2021/12/09 09:47:01;;;;;;;4.65;1.58;;;9.10;64.80;;;;;;6236398;28;20038;-68
2021/12/09 09:50:05;;;;;;;7.18;2.25;;;9.10;64.10;;;;;;6235509;28;20334;-69
2021/12/09 09:53:09;;;;;;;2.03;1.50;;;9.00;64.10;;;;;;6236119;28;20034;-68
2021/12/09 09:56:19;;;;;;;1.42;1.10;;;9.00;63.70;;;;;;6242121;28;20033;-70
2021/12/09 09:59:20;;;;;;;0.65;0.65;;;8.70;63.60;;;;;;6207897;28;20116;-68
2021/12/09 10:02:21;;;;;;;0.82;0.52;;;8.50;64.10;;;;;;6212644;28;20115;-68
2021/12/09 10:05:28;;;;;;;0.68;0.68;;;8.40;65.40;;;;;;6213754;28;20459;-68
2021/12/09 10:08:32;;;;;;;1.63;0.85;;;8.30;65.00;;;;;;6211881;28;20444;-67
2021/12/09 10:11:34;;;;;;;1.02;0.90;;;8.20;65.40;;;;;;6215680;28;20053;-67
2021/12/09 10:14:36;;;;;;;4.65;1.00;;;8.10;65.70;;;;;;6215432;28;20053;-68
2021/12/09 10:17:47;;;;;;;1.00;0.50;;;8.10;65.80;;;;;;6216161;28;20093;-69
2021/12/09 10:20:52;;;;;;;1.85;0.80;;;8.00;66.80;;;;;;6227523;28;20034;-68
2021/12/09 10:24:19;;;;;;;1.10;0.70;;;8.00;66.10;;;;;;6240982;28;20144;-68
2021/12/09 10:27:27;;;;;;;3.17;0.50;;;7.90;66.40;;;;;;6237063;28;20358;-68
2021/12/09 10:30:29;;;;;;;0.90;0.87;;;8.00;66.50;;;;;;6226235;28;20057;-69
2021/12/09 10:37:39;;;;;;;2.58;1.45;;;8.10;66.80;;;;;;6236094;28;20042;-68
2021/12/09 10:40:40;;;;;;;1.58;1.10;;;8.20;66.70;;;;;;6212256;28;20037;-68
2021/12/09 10:43:51;;;;;;;3.13;1.40;;;8.20;66.50;;;;;;6224623;28;20115;-68
2021/12/09 10:46:55;;;;;;;0.90;0.77;;;8.20;66.40;;;;;;6240099;28;20128;-68
2021/12/09 10:50:21;;;;;;;3.83;1.35;;;8.30;66.40;;;;;;6237887;28;20032;-69
2021/12/09 10:56:27;;;;;;;1.77;1.20;;;8.40;66.40;;;;;;6241670;28;20129;-69
2021/12/09 10:59:31;;;;;;;1.83;1.00;;;8.50;66.40;;;;;;6220722;28;20052;-70
2021/12/09 11:02:32;;;;;;;1.45;0.80;;;8.60;66.30;;;;;;6239333;28;20071;-69
2021/12/09 11:05:37;;;;;;;3.10;1.38;;;8.80;66.00;;;;;;6239154;28;20037;-69
2021/12/09 11:08:52;;;;;;;3.83;1.00;;;8.90;65.70;;;;;;6240523;28;20361;-69
2021/12/09 11:11:56;;;;;;;31.63;28.23;;;9.00;65.10;;;;;;6238974;28;20038;-68
2021/12/09 11:15:01;;;;;;;6.57;4.13;;;9.10;64.70;;;;;;6234590;28;20099;-71
2021/12/09 11:18:07;;;;;;;1.23;0.98;;;9.20;64.10;;;;;;6198617;28;20116;-70
2021/12/09 11:21:19;;;;;;;3.95;1.08;;;9.30;63.60;;;;;;6233761;28;20052;-70
2021/12/09 11:24:22;;;;;;;1.77;1.20;;;9.40;63.50;;;;;;6210250;28;20479;-69
2021/12/09 11:27:25;;;;;;;0.90;0.82;;;9.40;63.10;;;;;;6211478;28;20355;-69
2021/12/09 11:30:26;;;;;;;1.23;0.80;;;9.40;62.90;;;;;;6236515;28;20044;-69
2021/12/09 11:33:34;;;;;;;4.13;1.50;;;9.30;62.80;;;;;;6234875;28;20052;-69
2021/12/09 11:36:48;;;;;;;2.70;1.00;;;9.20;62.80;;;;;;6256567;28;20056;-70
2021/12/09 11:39:51;;;;;;;1.20;0.80;;;9.10;62.80;;;;;;6239142;28;20041;-69
2021/12/09 11:42:57;;;;;;;2.20;0.98;;;9.00;63.20;;;;;;6238379;28;20452;-69
2021/12/09 11:45:59;;;;;;;1.35;1.08;;;9.10;63.40;;;;;;6238460;28;20060;-69
2021/12/09 11:49:00;;;;;;;1.05;0.95;;;9.20;63.10;;;;;;6201236;28;20038;-69
2021/12/09 11:52:02;;;;;;;1.30;0.80;;;9.20;62.80;;;;;;6238286;28;20486;-69
2021/12/09 11:55:06;;;;;;;2.28;1.50;;;9.30;62.60;;;;;;6240058;28;20482;-69
2021/12/09 11:58:16;;;;;;;3.50;3.25;;;9.30;62.10;;;;;;6236685;28;20077;-69
2021/12/09 12:06:45;;;;;;;4.13;2.10;;;9.50;62.10;;;;;;6247050;28;20057;-68
2021/12/09 12:11:38;;;;;;;4.03;2.45;;;9.80;62.10;;;;;;6234164;28;20145;-69
2021/12/09 12:14:46;;;;;;;3.70;1.95;;;9.90;61.90;;;;;;6238124;28;20044;-69
2021/12/09 12:21:51;;;;;;;2.70;1.52;;;10.20;61.50;;;;;;6227981;28;20107;-70
2021/12/09 12:25:10;;;;;;;2.13;1.23;;;10.40;61.10;;;;;;6236557;28;20045;-69
2021/12/09 12:28:32;;;;;;;5.55;1.52;;;10.40;60.60;;;;;;6210084;28;20477;-68
2021/12/09 12:35:10;;;;;;;4.57;2.10;;;10.30;60.20;;;;;;6234111;28;20057;-69
2021/12/09 12:41:27;;;;;;;5.53;2.25;;;10.30;60.60;;;;;;6237301;28;20115;-68
2021/12/09 12:44:28;;;;;;;1.70;1.20;;;10.40;60.40;;;;;;6238877;28;20040;-69
2021/12/09 12:47:38;;;;;;;4.32;1.70;;;10.40;60.00;;;;;;6236771;28;20033;-69
2021/12/09 12:50:39;;;;;;;4.88;2.00;;;10.40;59.90;;;;;;6236183;28;20049;-68
2021/12/09 12:53:43;;;;;;;7.07;1.58;;;10.40;59.70;;;;;;6234468;28;20037;-69
2021/12/09 12:56:53;;;;;;;4.43;1.45;;;10.30;59.50;;;;;;6234747;28;20055;-70
2021/12/09 13:00:17;;;;;;;6.32;1.48;;;10.20;59.40;;;;;;6239345;28;20454;-68
2021/12/09 13:03:32;;;;;;;4.47;1.70;;;10.20;59.20;;;;;;6234710;28;20061;-69
2021/12/09 13:06:55;;;;;;;3.03;1.45;;;10.20;59.20;;;;;;6233837;28;20125;-69
2021/12/09 13:11:22;;;;;;;7.47;2.33;;;10.20;59.20;;;;;;6236670;28;20417;-68
2021/12/09 13:14:06;;;;;;;1.88;1.23;;;10.30;59.10;;;;;;6164903;28;20039;-68
2021/12/09 13:17:15;;;;;;;5.28;2.08;;;10.40;58.70;;;;;;6149936;28;20043;-69
2021/12/09 13:20:34;;;;;;;2.80;1.67;;;10.40;58.20;;;;;;6147491;28;20035;-70
2021/12/09 13:23:35;;;;;;;4.43;1.92;;;10.40;58.10;;;;;;6171102;28;20035;-69
2021/12/09 13:34:21;;;;;;;3.40;1.38;;;10.40;57.50;;;;;;6161371;28;20408;-68
2021/12/09 13:40:26;;;;;;;4.22;1.73;;;10.50;57.40;;;;;;6166125;28;20038;-69
2021/12/09 13:50:17;;;;;;;2.70;1.38;;;10.50;57.00;;;;;;6208188;28;20086;-69
2021/12/09 13:56:37;;;;;;;2.63;1.30;;;10.50;56.80;;;;;;6235131;28;20037;-68
2021/12/09 13:59:39;;;;;;;3.45;1.73;;;10.50;56.70;;;;;;6237961;28;20037;-68
2021/12/09 14:02:40;;;;;;;1.50;1.15;;;10.50;56.50;;;;;;6241034;28;20112;-69
2021/12/09 14:05:49;;;;;;;4.72;1.63;;;10.50;56.70;;;;;;6237944;28;20409;-69
2021/12/09 14:08:54;;;;;;;6.65;1.48;;;10.50;56.80;;;;;;6254000;28;20109;-69
2021/12/09 14:11:55;;;;;;;9.00;2.15;;;10.40;56.70;;;;;;6234592;28;20120;-73
2021/12/09 14:15:07;;;;;;;2.83;1.45;;;10.40;56.80;;;;;;6244279;28;20040;-68
2021/12/09 14:18:22;;;;;;;1.48;1.23;;;10.40;56.80;;;;;;6242425;28;20038;-69
2021/12/09 14:21:25;;;;;;;2.15;1.40;;;10.50;56.70;;;;;;6238139;28;20534;-69
2021/12/09 14:24:29;;;;;;;1.33;1.15;;;10.50;56.40;;;;;;6237610;28;20034;-69
2021/12/09 14:27:31;;;;;;;1.75;1.25;;;10.50;56.20;;;;;;6238116;28;20407;-68
2021/12/09 14:30:32;;;;;;;1.63;1.10;;;10.50;56.00;;;;;;6239932;28;20084;-68
2021/12/09 14:33:34;;;;;;;3.05;1.38;;;10.60;55.80;;;;;;6236657;28;20061;-69
2021/12/09 14:36:36;;;;;;;3.08;1.15;;;10.50;55.70;;;;;;6236889;28;20464;-69
2021/12/09 14:39:37;;;;;;;2.28;1.42;;;10.60;55.60;;;;;;6241585;28;20034;-68
2021/12/09 14:42:55;;;;;;;3.63;1.25;;;10.70;55.40;;;;;;6240504;28;20037;-68
2021/12/09 14:46:02;;;;;;;2.67;1.30;;;10.70;55.40;;;;;;6236169;28;20374;-68
2021/12/09 14:49:24;;;;;;;6.18;1.67;;;10.70;55.20;;;;;;6239838;28;20041;-69
2021/12/09 14:52:33;;;;;;;4.82;1.80;;;10.60;55.10;;;;;;6238898;28;20174;-68
2021/12/09 14:55:40;;;;;;;1.35;1.25;;;10.50;55.00;;;;;;6237365;28;20493;-69
2021/12/09 14:58:41;;;;;;;3.45;1.48;;;10.40;55.00;;;;;;6237247;28;20099;-69
2021/12/09 15:01:44;;;;;;;7.03;1.52;;;10.30;55.10;;;;;;6240452;28;20400;-68
2021/12/09 15:04:50;;;;;;;2.10;1.35;;;10.30;55.20;;;;;;6236814;28;20041;-71
2021/12/09 15:07:58;;;;;;;4.57;1.33;;;10.20;55.20;;;;;;6239033;28;20049;-68
2021/12/09 15:11:07;;;;;;;3.72;1.83;;;10.10;55.40;;;;;;6246955;28;20030;-69
2021/12/09 15:14:17;;;;;;;1.58;1.10;;;10.10;55.20;;;;;;6239604;28;20370;-68
2021/12/09 15:17:22;;;;;;;2.92;1.23;;;10.00;55.10;;;;;;6237126;28;20091;-69
2021/12/09 15:20:42;;;;;;;3.60;1.73;;;9.90;55.20;;;;;;6240207;28;20184;-69
2021/12/09 15:26:53;;;;;;;2.17;1.48;;;9.80;55.40;;;;;;6239410;28;20053;-69
2021/12/09 15:29:54;;;;;;;3.33;1.60;;;9.80;55.60;;;;;;6222330;28;20050;-70
2021/12/09 15:33:00;;;;;;;3.10;1.52;;;9.80;55.70;;;;;;6213210;28;20034;-69
2021/12/09 15:36:13;;;;;;;3.38;1.80;;;9.70;55.70;;;;;;6210741;28;20112;-70
2021/12/09 15:39:20;;;;;;;5.43;1.83;;;9.70;55.80;;;;;;6235697;28;20575;-68
2021/12/09 15:42:25;;;;;;;2.00;1.27;;;9.60;55.80;;;;;;6236953;28;20038;-69
2021/12/09 15:45:26;;;;;;;3.63;1.38;;;9.60;55.80;;;;;;6239033;28;20034;-69
2021/12/09 15:48:46;;;;;;;2.85;1.60;;;9.50;55.70;;;;;;6206679;28;20552;-70
2021/12/09 15:51:50;;;;;;;2.88;1.38;;;9.50;55.80;;;;;;6236401;28;20143;-68
2021/12/09 15:54:57;;;;;;;6.90;1.77;;;9.40;56.00;;;;;;6235079;28;20423;-70
2021/12/09 15:58:06;;;;;;;5.55;1.92;;;9.40;56.20;;;;;;6246896;28;20034;-69
2021/12/09 16:01:10;;;;;;;4.05;1.80;;;9.40;56.30;;;;;;6233799;28;20038;-69
2021/12/09 16:04:11;;;;;;;5.53;2.22;;;9.40;56.50;;;;;;6233680;28;20049;-69
2021/12/09 16:07:13;;;;;;;3.08;1.85;;;9.40;56.50;;;;;;6233698;28;20026;-69
2021/12/09 16:10:15;;;;;;;5.70;1.90;;;9.30;56.60;;;;;;6234948;28;20109;-70
2021/12/09 16:13:16;;;;;;;4.22;1.80;;;9.20;56.60;;;;;;6232626;28;20444;-68
2021/12/09 16:16:19;;;;;;;4.57;1.95;;;9.20;56.80;;;;;;6235932;28;20038;-70
2021/12/09 16:19:23;;;;;;;4.38;2.00;;;9.30;56.90;;;;;;6235665;28;20041;-68
2021/12/09 16:25:26;;;;;;;3.53;1.48;;;9.20;57.00;;;;;;6210076;28;20030;-69
2021/12/09 16:28:28;;;;;;;3.28;1.80;;;9.20;57.10;;;;;;6206041;28;20428;-69
2021/12/09 16:31:29;;;;;;;4.03;2.42;;;9.20;57.20;;;;;;6231297;28;20180;-69
2021/12/09 16:34:31;;;;;;;5.95;2.47;;;9.20;57.20;;;;;;6232994;28;20033;-68
2021/12/09 16:37:38;;;;;;;3.83;2.15;;;9.20;57.20;;;;;;6233704;28;20364;-68
2021/12/09 16:40:41;;;;;;;5.20;2.50;;;9.20;57.30;;;;;;6233170;28;20453;-68
2021/12/09 16:43:42;;;;;;;4.97;2.90;;;9.20;57.40;;;;;;6233963;28;20049;-69
2021/12/09 16:46:45;;;;;;;9.50;2.15;;;9.20;57.40;;;;;;6222554;28;20093;-69
2021/12/09 16:49:46;;;;;;;4.68;2.25;;;9.20;57.40;;;;;;6236216;28;20569;-69
2021/12/09 16:52:50;;;;;;;5.88;2.22;;;9.30;57.40;;;;;;6234581;28;20105;-68
2021/12/09 16:56:04;;;;;;;3.42;2.08;;;9.30;57.40;;;;;;6210955;28;20037;-68